sensor_id;sensor_type;location;lat;lon;timestamp;P1;durP1;ratioP1;P2;durP2;ratioP2
19705;SDS011;10003;52.506;4.700;2022-12-18T00:02:23;201.23;;;95.53;;
19705;SDS011;10003;52.506;4.700;2022-12-18T00:04:52;96.93;;;44.60;;
19705;SDS011;10003;52.506;4.700;2022-12-18T00:07:21;191.30;;;90.33;;
19705;SDS011;10003;52.506;4.700;2022-12-18T00:09:50;174.17;;;87.60;;
19705;SDS011;10003;52.506;4.700;2022-12-18T00:12:18;185.00;;;89.20;;
19705;SDS011;10003;52.506;4.700;2022-12-18T00:14:46;166.57;;;78.43;;
19705;SDS011;10003;52.506;4.700;2022-12-18T00:17:15;199.20;;;85.53;;
19705;SDS011;10003;52.506;4.700;2022-12-18T00:19:43;212.23;;;103.10;;
19705;SDS011;10003;52.506;4.700;2022-12-18T00:22:11;172.90;;;76.23;;
19705;SDS011;10003;52.506;4.700;2022-12-18T00:24:41;173.03;;;81.53;;
19705;SDS011;10003;52.506;4.700;2022-12-18T00:27:09;155.53;;;67.57;;
19705;SDS011;10003;52.506;4.700;2022-12-18T00:29:38;142.57;;;68.27;;
19705;SDS011;10003;52.506;4.700;2022-12-18T00:32:06;186.23;;;98.57;;
19705;SDS011;10003;52.506;4.700;2022-12-18T00:34:35;146.30;;;68.87;;
19705;SDS011;10003;52.506;4.700;2022-12-18T00:37:03;165.90;;;71.00;;
19705;SDS011;10003;52.506;4.700;2022-12-18T00:39:31;175.03;;;73.77;;
19705;SDS011;10003;52.506;4.700;2022-12-18T00:42:01;196.30;;;72.73;;
19705;SDS011;10003;52.506;4.700;2022-12-18T00:44:47;230.03;;;79.83;;
19705;SDS011;10003;52.506;4.700;2022-12-18T00:47:15;107.27;;;48.73;;
19705;SDS011;10003;52.506;4.700;2022-12-18T00:49:44;190.57;;;87.10;;
19705;SDS011;10003;52.506;4.700;2022-12-18T00:52:12;138.93;;;59.43;;
19705;SDS011;10003;52.506;4.700;2022-12-18T00:54:41;175.87;;;81.83;;
19705;SDS011;10003;52.506;4.700;2022-12-18T00:57:10;144.53;;;65.13;;
19705;SDS011;10003;52.506;4.700;2022-12-18T00:59:39;145.90;;;76.50;;
19705;SDS011;10003;52.506;4.700;2022-12-18T01:02:07;159.07;;;79.10;;
19705;SDS011;10003;52.506;4.700;2022-12-18T01:04:36;128.53;;;62.70;;
19705;SDS011;10003;52.506;4.700;2022-12-18T01:07:04;123.97;;;52.33;;
19705;SDS011;10003;52.506;4.700;2022-12-18T01:09:32;69.47;;;31.67;;
19705;SDS011;10003;52.506;4.700;2022-12-18T01:12:01;143.13;;;65.17;;
19705;SDS011;10003;52.506;4.700;2022-12-18T01:14:31;282.67;;;121.60;;
19705;SDS011;10003;52.506;4.700;2022-12-18T01:16:59;211.90;;;90.13;;
19705;SDS011;10003;52.506;4.700;2022-12-18T01:19:29;166.27;;;88.10;;
19705;SDS011;10003;52.506;4.700;2022-12-18T01:21:58;160.73;;;77.13;;
19705;SDS011;10003;52.506;4.700;2022-12-18T01:24:26;65.43;;;29.17;;
19705;SDS011;10003;52.506;4.700;2022-12-18T01:26:54;98.70;;;46.67;;
19705;SDS011;10003;52.506;4.700;2022-12-18T01:29:24;188.77;;;78.23;;
19705;SDS011;10003;52.506;4.700;2022-12-18T01:31:55;145.60;;;70.73;;
19705;SDS011;10003;52.506;4.700;2022-12-18T01:34:24;140.87;;;70.60;;
19705;SDS011;10003;52.506;4.700;2022-12-18T01:36:52;161.50;;;80.97;;
19705;SDS011;10003;52.506;4.700;2022-12-18T01:39:20;108.27;;;54.87;;
19705;SDS011;10003;52.506;4.700;2022-12-18T01:41:49;130.67;;;62.13;;
19705;SDS011;10003;52.506;4.700;2022-12-18T01:47:30;156.03;;;62.83;;
19705;SDS011;10003;52.506;4.700;2022-12-18T01:50:00;206.00;;;90.40;;
19705;SDS011;10003;52.506;4.700;2022-12-18T01:52:31;157.83;;;69.23;;
19705;SDS011;10003;52.506;4.700;2022-12-18T01:55:00;172.03;;;79.10;;
19705;SDS011;10003;52.506;4.700;2022-12-18T01:57:30;150.67;;;65.67;;
19705;SDS011;10003;52.506;4.700;2022-12-18T01:59:59;126.60;;;58.67;;
19705;SDS011;10003;52.506;4.700;2022-12-18T02:02:30;121.83;;;55.07;;
19705;SDS011;10003;52.506;4.700;2022-12-18T02:04:58;64.23;;;26.20;;
19705;SDS011;10003;52.506;4.700;2022-12-18T02:07:29;110.30;;;48.53;;
19705;SDS011;10003;52.506;4.700;2022-12-18T02:10:03;133.37;;;58.53;;
19705;SDS011;10003;52.506;4.700;2022-12-18T02:12:34;136.60;;;55.17;;
19705;SDS011;10003;52.506;4.700;2022-12-18T02:15:05;178.00;;;68.57;;
19705;SDS011;10003;52.506;4.700;2022-12-18T02:17:37;167.97;;;75.53;;
19705;SDS011;10003;52.506;4.700;2022-12-18T02:20:08;56.07;;;23.17;;
19705;SDS011;10003;52.506;4.700;2022-12-18T02:22:43;148.17;;;56.50;;
19705;SDS011;10003;52.506;4.700;2022-12-18T02:25:18;185.20;;;83.90;;
19705;SDS011;10003;52.506;4.700;2022-12-18T02:27:50;109.37;;;46.63;;
19705;SDS011;10003;52.506;4.700;2022-12-18T02:30:18;154.43;;;81.30;;
19705;SDS011;10003;52.506;4.700;2022-12-18T02:32:48;146.70;;;68.77;;
19705;SDS011;10003;52.506;4.700;2022-12-18T02:35:19;122.97;;;56.93;;
19705;SDS011;10003;52.506;4.700;2022-12-18T02:37:48;144.60;;;55.00;;
19705;SDS011;10003;52.506;4.700;2022-12-18T02:40:17;121.50;;;50.27;;
19705;SDS011;10003;52.506;4.700;2022-12-18T02:42:47;51.97;;;21.80;;
19705;SDS011;10003;52.506;4.700;2022-12-18T02:45:17;187.10;;;47.40;;
19705;SDS011;10003;52.506;4.700;2022-12-18T02:47:46;132.30;;;53.37;;
19705;SDS011;10003;52.506;4.700;2022-12-18T02:50:19;270.63;;;80.87;;
19705;SDS011;10003;52.506;4.700;2022-12-18T02:52:55;174.27;;;60.80;;
19705;SDS011;10003;52.506;4.700;2022-12-18T02:55:29;155.50;;;66.60;;
19705;SDS011;10003;52.506;4.700;2022-12-18T02:58:01;133.40;;;54.60;;
19705;SDS011;10003;52.506;4.700;2022-12-18T03:00:33;113.47;;;51.23;;
19705;SDS011;10003;52.506;4.700;2022-12-18T03:03:05;139.93;;;67.70;;
19705;SDS011;10003;52.506;4.700;2022-12-18T03:05:36;141.83;;;54.67;;
19705;SDS011;10003;52.506;4.700;2022-12-18T03:08:06;199.97;;;80.23;;
19705;SDS011;10003;52.506;4.700;2022-12-18T03:10:37;136.83;;;52.33;;
19705;SDS011;10003;52.506;4.700;2022-12-18T03:13:08;157.93;;;58.30;;
19705;SDS011;10003;52.506;4.700;2022-12-18T03:15:39;133.77;;;55.57;;
19705;SDS011;10003;52.506;4.700;2022-12-18T03:18:10;135.43;;;59.07;;
19705;SDS011;10003;52.506;4.700;2022-12-18T03:20:40;60.33;;;27.00;;
19705;SDS011;10003;52.506;4.700;2022-12-18T03:23:11;78.50;;;27.87;;
19705;SDS011;10003;52.506;4.700;2022-12-18T03:25:40;109.43;;;45.07;;
19705;SDS011;10003;52.506;4.700;2022-12-18T03:28:10;152.20;;;69.20;;
19705;SDS011;10003;52.506;4.700;2022-12-18T03:30:43;131.63;;;65.97;;
19705;SDS011;10003;52.506;4.700;2022-12-18T03:33:13;130.37;;;60.73;;
19705;SDS011;10003;52.506;4.700;2022-12-18T03:35:46;151.07;;;62.13;;
19705;SDS011;10003;52.506;4.700;2022-12-18T03:38:14;133.43;;;50.70;;
19705;SDS011;10003;52.506;4.700;2022-12-18T03:40:44;157.87;;;68.77;;
19705;SDS011;10003;52.506;4.700;2022-12-18T03:43:17;72.30;;;30.03;;
19705;SDS011;10003;52.506;4.700;2022-12-18T03:45:54;77.03;;;33.73;;
19705;SDS011;10003;52.506;4.700;2022-12-18T03:48:25;132.30;;;62.00;;
19705;SDS011;10003;52.506;4.700;2022-12-18T03:50:55;120.93;;;55.80;;
19705;SDS011;10003;52.506;4.700;2022-12-18T03:53:27;50.97;;;26.27;;
19705;SDS011;10003;52.506;4.700;2022-12-18T03:55:57;75.80;;;33.20;;
19705;SDS011;10003;52.506;4.700;2022-12-18T03:58:26;95.37;;;45.27;;
19705;SDS011;10003;52.506;4.700;2022-12-18T04:00:58;61.67;;;29.20;;
19705;SDS011;10003;52.506;4.700;2022-12-18T04:03:28;181.43;;;63.90;;
19705;SDS011;10003;52.506;4.700;2022-12-18T04:05:58;208.03;;;64.10;;
19705;SDS011;10003;52.506;4.700;2022-12-18T04:08:28;242.30;;;62.77;;
19705;SDS011;10003;52.506;4.700;2022-12-18T04:10:57;84.20;;;30.30;;
19705;SDS011;10003;52.506;4.700;2022-12-18T04:13:27;124.03;;;38.07;;
19705;SDS011;10003;52.506;4.700;2022-12-18T04:15:57;207.83;;;50.40;;
19705;SDS011;10003;52.506;4.700;2022-12-18T04:18:26;35.07;;;16.00;;
19705;SDS011;10003;52.506;4.700;2022-12-18T04:20:54;90.83;;;31.27;;
19705;SDS011;10003;52.506;4.700;2022-12-18T04:23:22;84.97;;;23.60;;
19705;SDS011;10003;52.506;4.700;2022-12-18T04:25:51;100.67;;;36.03;;
19705;SDS011;10003;52.506;4.700;2022-12-18T04:28:19;89.23;;;40.07;;
19705;SDS011;10003;52.506;4.700;2022-12-18T04:30:48;62.47;;;30.83;;
19705;SDS011;10003;52.506;4.700;2022-12-18T04:33:18;63.63;;;31.13;;
19705;SDS011;10003;52.506;4.700;2022-12-18T04:35:46;77.50;;;39.10;;
19705;SDS011;10003;52.506;4.700;2022-12-18T04:38:14;62.17;;;31.37;;
19705;SDS011;10003;52.506;4.700;2022-12-18T04:40:43;63.60;;;33.53;;
19705;SDS011;10003;52.506;4.700;2022-12-18T04:43:11;63.50;;;32.53;;
19705;SDS011;10003;52.506;4.700;2022-12-18T04:45:40;56.67;;;33.67;;
19705;SDS011;10003;52.506;4.700;2022-12-18T04:48:08;75.20;;;40.57;;
19705;SDS011;10003;52.506;4.700;2022-12-18T04:50:38;49.60;;;27.50;;
19705;SDS011;10003;52.506;4.700;2022-12-18T04:53:06;63.67;;;35.23;;
19705;SDS011;10003;52.506;4.700;2022-12-18T04:55:35;65.10;;;35.87;;
19705;SDS011;10003;52.506;4.700;2022-12-18T04:58:09;69.80;;;32.93;;
19705;SDS011;10003;52.506;4.700;2022-12-18T05:00:37;85.47;;;47.70;;
19705;SDS011;10003;52.506;4.700;2022-12-18T05:03:06;68.57;;;35.77;;
19705;SDS011;10003;52.506;4.700;2022-12-18T05:05:34;66.40;;;36.60;;
19705;SDS011;10003;52.506;4.700;2022-12-18T05:08:04;57.10;;;28.37;;
19705;SDS011;10003;52.506;4.700;2022-12-18T05:10:33;50.60;;;24.40;;
19705;SDS011;10003;52.506;4.700;2022-12-18T05:13:03;18.70;;;10.67;;
19705;SDS011;10003;52.506;4.700;2022-12-18T05:15:32;46.07;;;26.30;;
19705;SDS011;10003;52.506;4.700;2022-12-18T05:18:04;73.53;;;35.17;;
19705;SDS011;10003;52.506;4.700;2022-12-18T05:20:33;55.77;;;30.23;;
19705;SDS011;10003;52.506;4.700;2022-12-18T05:23:01;33.43;;;16.13;;
19705;SDS011;10003;52.506;4.700;2022-12-18T05:25:31;55.63;;;31.23;;
19705;SDS011;10003;52.506;4.700;2022-12-18T05:27:59;33.17;;;21.30;;
19705;SDS011;10003;52.506;4.700;2022-12-18T05:30:28;7.07;;;6.23;;
19705;SDS011;10003;52.506;4.700;2022-12-18T05:32:56;9.13;;;6.33;;
19705;SDS011;10003;52.506;4.700;2022-12-18T05:35:25;15.83;;;10.30;;
19705;SDS011;10003;52.506;4.700;2022-12-18T05:37:53;11.10;;;8.33;;
19705;SDS011;10003;52.506;4.700;2022-12-18T05:40:25;17.13;;;10.80;;
19705;SDS011;10003;52.506;4.700;2022-12-18T05:42:55;9.30;;;7.70;;
19705;SDS011;10003;52.506;4.700;2022-12-18T05:45:24;4.30;;;4.00;;
19705;SDS011;10003;52.506;4.700;2022-12-18T05:47:52;14.33;;;9.23;;
19705;SDS011;10003;52.506;4.700;2022-12-18T05:50:22;7.97;;;7.23;;
19705;SDS011;10003;52.506;4.700;2022-12-18T05:52:50;17.33;;;8.97;;
19705;SDS011;10003;52.506;4.700;2022-12-18T05:55:48;24.37;;;12.87;;
19705;SDS011;10003;52.506;4.700;2022-12-18T05:58:46;17.13;;;9.80;;
19705;SDS011;10003;52.506;4.700;2022-12-18T06:01:15;24.03;;;14.40;;
19705;SDS011;10003;52.506;4.700;2022-12-18T06:03:44;10.27;;;9.23;;
19705;SDS011;10003;52.506;4.700;2022-12-18T06:06:14;22.97;;;14.50;;
19705;SDS011;10003;52.506;4.700;2022-12-18T06:08:42;16.63;;;9.17;;
19705;SDS011;10003;52.506;4.700;2022-12-18T06:11:12;16.27;;;9.90;;
19705;SDS011;10003;52.506;4.700;2022-12-18T06:13:40;10.77;;;6.10;;
19705;SDS011;10003;52.506;4.700;2022-12-18T06:16:10;3.87;;;3.67;;
19705;SDS011;10003;52.506;4.700;2022-12-18T06:18:39;17.27;;;11.00;;
19705;SDS011;10003;52.506;4.700;2022-12-18T06:24:09;17.30;;;9.93;;
19705;SDS011;10003;52.506;4.700;2022-12-18T06:26:38;12.13;;;8.33;;
19705;SDS011;10003;52.506;4.700;2022-12-18T06:29:06;29.63;;;10.90;;
19705;SDS011;10003;52.506;4.700;2022-12-18T06:31:36;16.50;;;9.13;;
19705;SDS011;10003;52.506;4.700;2022-12-18T06:34:05;20.47;;;10.50;;
19705;SDS011;10003;52.506;4.700;2022-12-18T06:36:33;22.40;;;14.77;;
19705;SDS011;10003;52.506;4.700;2022-12-18T06:39:02;23.53;;;15.53;;
19705;SDS011;10003;52.506;4.700;2022-12-18T06:41:31;20.87;;;11.60;;
19705;SDS011;10003;52.506;4.700;2022-12-18T06:43:59;27.23;;;12.57;;
19705;SDS011;10003;52.506;4.700;2022-12-18T06:46:28;19.40;;;13.53;;
19705;SDS011;10003;52.506;4.700;2022-12-18T06:49:00;30.40;;;14.10;;
19705;SDS011;10003;52.506;4.700;2022-12-18T06:51:29;21.20;;;11.70;;
19705;SDS011;10003;52.506;4.700;2022-12-18T06:53:57;12.07;;;8.60;;
19705;SDS011;10003;52.506;4.700;2022-12-18T06:56:26;6.23;;;5.53;;
19705;SDS011;10003;52.506;4.700;2022-12-18T06:58:54;6.20;;;5.53;;
19705;SDS011;10003;52.506;4.700;2022-12-18T07:01:23;5.37;;;4.87;;
19705;SDS011;10003;52.506;4.700;2022-12-18T07:03:51;8.43;;;7.33;;
19705;SDS011;10003;52.506;4.700;2022-12-18T07:06:22;6.23;;;5.13;;
19705;SDS011;10003;52.506;4.700;2022-12-18T07:08:51;19.50;;;11.97;;
19705;SDS011;10003;52.506;4.700;2022-12-18T07:11:20;4.53;;;4.23;;
19705;SDS011;10003;52.506;4.700;2022-12-18T07:41:12;9.23;;;6.13;;
19705;SDS011;10003;52.506;4.700;2022-12-18T07:48:55;18.30;;;10.43;;
19705;SDS011;10003;52.506;4.700;2022-12-18T07:51:21;20.93;;;13.07;;
19705;SDS011;10003;52.506;4.700;2022-12-18T07:53:49;17.77;;;11.17;;
19705;SDS011;10003;52.506;4.700;2022-12-18T07:59:49;8.90;;;8.03;;
19705;SDS011;10003;52.506;4.700;2022-12-18T08:02:18;8.27;;;7.23;;
19705;SDS011;10003;52.506;4.700;2022-12-18T08:04:47;4.17;;;3.90;;
19705;SDS011;10003;52.506;4.700;2022-12-18T08:07:15;6.70;;;6.10;;
19705;SDS011;10003;52.506;4.700;2022-12-18T08:09:43;7.30;;;5.23;;
19705;SDS011;10003;52.506;4.700;2022-12-18T08:12:21;2.60;;;2.17;;
19705;SDS011;10003;52.506;4.700;2022-12-18T08:14:51;5.73;;;5.43;;
19705;SDS011;10003;52.506;4.700;2022-12-18T08:17:19;10.90;;;8.77;;
19705;SDS011;10003;52.506;4.700;2022-12-18T08:19:47;5.90;;;5.17;;
19705;SDS011;10003;52.506;4.700;2022-12-18T08:22:16;8.70;;;6.90;;
19705;SDS011;10003;52.506;4.700;2022-12-18T08:25:04;13.47;;;8.77;;
19705;SDS011;10003;52.506;4.700;2022-12-18T08:27:52;4.83;;;4.37;;
19705;SDS011;10003;52.506;4.700;2022-12-18T08:30:24;4.43;;;4.23;;
19705;SDS011;10003;52.506;4.700;2022-12-18T08:33:05;2.97;;;2.87;;
19705;SDS011;10003;52.506;4.700;2022-12-18T08:35:34;9.17;;;8.13;;
19705;SDS011;10003;52.506;4.700;2022-12-18T08:46:19;11.33;;;6.60;;
19705;SDS011;10003;52.506;4.700;2022-12-18T08:50:41;3.53;;;3.27;;
19705;SDS011;10003;52.506;4.700;2022-12-18T09:33:39;15.33;;;12.50;;
19705;SDS011;10003;52.506;4.700;2022-12-18T09:40:48;6.23;;;5.63;;
19705;SDS011;10003;52.506;4.700;2022-12-18T09:43:18;8.03;;;5.80;;
19705;SDS011;10003;52.506;4.700;2022-12-18T09:45:47;11.07;;;7.57;;
19705;SDS011;10003;52.506;4.700;2022-12-18T09:48:18;12.47;;;10.97;;
19705;SDS011;10003;52.506;4.700;2022-12-18T09:50:50;16.23;;;13.47;;
19705;SDS011;10003;52.506;4.700;2022-12-18T09:53:24;12.20;;;10.90;;
19705;SDS011;10003;52.506;4.700;2022-12-18T09:55:54;15.67;;;10.17;;
19705;SDS011;10003;52.506;4.700;2022-12-18T09:58:25;14.07;;;10.90;;
19705;SDS011;10003;52.506;4.700;2022-12-18T10:00:55;10.17;;;8.10;;
19705;SDS011;10003;52.506;4.700;2022-12-18T10:03:24;19.23;;;15.57;;
19705;SDS011;10003;52.506;4.700;2022-12-18T10:05:56;3.73;;;3.43;;
19705;SDS011;10003;52.506;4.700;2022-12-18T10:08:29;6.17;;;5.53;;
19705;SDS011;10003;52.506;4.700;2022-12-18T10:11:03;4.60;;;4.20;;
19705;SDS011;10003;52.506;4.700;2022-12-18T10:13:33;19.27;;;15.20;;
19705;SDS011;10003;52.506;4.700;2022-12-18T10:16:06;13.10;;;9.60;;
19705;SDS011;10003;52.506;4.700;2022-12-18T10:18:39;12.13;;;10.80;;
19705;SDS011;10003;52.506;4.700;2022-12-18T10:21:13;7.27;;;6.00;;
19705;SDS011;10003;52.506;4.700;2022-12-18T10:23:44;10.37;;;8.83;;
19705;SDS011;10003;52.506;4.700;2022-12-18T10:26:18;10.83;;;7.03;;
19705;SDS011;10003;52.506;4.700;2022-12-18T10:28:47;5.07;;;3.10;;
19705;SDS011;10003;52.506;4.700;2022-12-18T10:31:18;7.07;;;5.73;;
19705;SDS011;10003;52.506;4.700;2022-12-18T10:33:50;14.10;;;10.47;;
19705;SDS011;10003;52.506;4.700;2022-12-18T10:36:20;5.33;;;4.83;;
19705;SDS011;10003;52.506;4.700;2022-12-18T10:38:49;4.73;;;4.37;;
19705;SDS011;10003;52.506;4.700;2022-12-18T10:41:25;7.60;;;6.33;;
19705;SDS011;10003;52.506;4.700;2022-12-18T10:44:11;6.10;;;5.60;;
19705;SDS011;10003;52.506;4.700;2022-12-18T10:46:40;7.30;;;5.80;;
19705;SDS011;10003;52.506;4.700;2022-12-18T10:49:18;3.93;;;2.07;;
19705;SDS011;10003;52.506;4.700;2022-12-18T10:51:48;10.67;;;8.50;;
19705;SDS011;10003;52.506;4.700;2022-12-18T10:54:18;11.63;;;8.00;;
19705;SDS011;10003;52.506;4.700;2022-12-18T10:56:49;12.77;;;10.23;;
19705;SDS011;10003;52.506;4.700;2022-12-18T10:59:17;7.37;;;4.57;;
19705;SDS011;10003;52.506;4.700;2022-12-18T11:01:47;10.67;;;8.27;;
19705;SDS011;10003;52.506;4.700;2022-12-18T11:04:17;11.53;;;9.47;;
19705;SDS011;10003;52.506;4.700;2022-12-18T11:06:58;13.70;;;10.27;;
19705;SDS011;10003;52.506;4.700;2022-12-18T11:09:28;4.60;;;3.20;;
19705;SDS011;10003;52.506;4.700;2022-12-18T11:11:58;12.50;;;11.20;;
19705;SDS011;10003;52.506;4.700;2022-12-18T11:14:28;13.27;;;10.57;;
19705;SDS011;10003;52.506;4.700;2022-12-18T11:16:57;17.33;;;13.33;;
19705;SDS011;10003;52.506;4.700;2022-12-18T11:19:52;8.33;;;7.47;;
19705;SDS011;10003;52.506;4.700;2022-12-18T11:22:23;15.43;;;13.60;;
19705;SDS011;10003;52.506;4.700;2022-12-18T11:24:55;7.77;;;5.60;;
19705;SDS011;10003;52.506;4.700;2022-12-18T11:27:47;9.30;;;7.30;;
19705;SDS011;10003;52.506;4.700;2022-12-18T11:30:20;8.37;;;7.27;;
19705;SDS011;10003;52.506;4.700;2022-12-18T11:32:49;10.13;;;7.10;;
19705;SDS011;10003;52.506;4.700;2022-12-18T11:35:21;6.13;;;4.70;;
19705;SDS011;10003;52.506;4.700;2022-12-18T11:37:53;17.00;;;12.23;;
19705;SDS011;10003;52.506;4.700;2022-12-18T11:40:27;19.40;;;15.13;;
19705;SDS011;10003;52.506;4.700;2022-12-18T11:43:06;9.83;;;6.90;;
19705;SDS011;10003;52.506;4.700;2022-12-18T11:45:38;3.07;;;2.90;;
19705;SDS011;10003;52.506;4.700;2022-12-18T11:48:12;8.93;;;5.50;;
19705;SDS011;10003;52.506;4.700;2022-12-18T11:50:44;2.50;;;2.40;;
19705;SDS011;10003;52.506;4.700;2022-12-18T11:53:16;8.90;;;6.43;;
19705;SDS011;10003;52.506;4.700;2022-12-18T11:55:50;7.93;;;6.90;;
19705;SDS011;10003;52.506;4.700;2022-12-18T11:58:32;6.77;;;4.20;;
19705;SDS011;10003;52.506;4.700;2022-12-18T12:01:11;11.47;;;8.10;;
19705;SDS011;10003;52.506;4.700;2022-12-18T12:03:52;8.97;;;6.03;;
19705;SDS011;10003;52.506;4.700;2022-12-18T12:06:38;10.03;;;6.93;;
19705;SDS011;10003;52.506;4.700;2022-12-18T12:09:13;5.03;;;4.73;;
19705;SDS011;10003;52.506;4.700;2022-12-18T12:11:50;4.37;;;3.97;;
19705;SDS011;10003;52.506;4.700;2022-12-18T12:14:32;2.63;;;2.40;;
19705;SDS011;10003;52.506;4.700;2022-12-18T12:17:02;7.00;;;5.27;;
19705;SDS011;10003;52.506;4.700;2022-12-18T12:19:36;4.73;;;4.07;;
19705;SDS011;10003;52.506;4.700;2022-12-18T12:22:09;12.50;;;10.20;;
19705;SDS011;10003;52.506;4.700;2022-12-18T12:24:44;14.90;;;12.10;;
19705;SDS011;10003;52.506;4.700;2022-12-18T12:27:17;2.50;;;2.30;;
19705;SDS011;10003;52.506;4.700;2022-12-18T12:29:50;6.30;;;5.67;;
19705;SDS011;10003;52.506;4.700;2022-12-18T12:32:27;7.83;;;4.53;;
19705;SDS011;10003;52.506;4.700;2022-12-18T12:35:03;10.53;;;7.73;;
19705;SDS011;10003;52.506;4.700;2022-12-18T12:37:38;13.00;;;9.67;;
19705;SDS011;10003;52.506;4.700;2022-12-18T12:40:10;12.47;;;9.73;;
19705;SDS011;10003;52.506;4.700;2022-12-18T12:43:01;8.20;;;7.37;;
19705;SDS011;10003;52.506;4.700;2022-12-18T12:45:42;16.63;;;10.40;;
19705;SDS011;10003;52.506;4.700;2022-12-18T12:48:15;12.23;;;9.23;;
19705;SDS011;10003;52.506;4.700;2022-12-18T12:50:50;12.50;;;9.43;;
19705;SDS011;10003;52.506;4.700;2022-12-18T12:53:22;10.53;;;7.67;;
19705;SDS011;10003;52.506;4.700;2022-12-18T12:55:54;9.17;;;7.77;;
19705;SDS011;10003;52.506;4.700;2022-12-18T12:58:31;7.93;;;7.17;;
19705;SDS011;10003;52.506;4.700;2022-12-18T13:01:01;9.73;;;8.17;;
19705;SDS011;10003;52.506;4.700;2022-12-18T13:03:34;12.80;;;8.00;;
19705;SDS011;10003;52.506;4.700;2022-12-18T13:06:07;6.33;;;5.47;;
19705;SDS011;10003;52.506;4.700;2022-12-18T13:08:51;11.37;;;8.57;;
19705;SDS011;10003;52.506;4.700;2022-12-18T13:11:34;14.60;;;11.27;;
19705;SDS011;10003;52.506;4.700;2022-12-18T13:14:27;6.33;;;4.70;;
19705;SDS011;10003;52.506;4.700;2022-12-18T13:19:40;4.43;;;4.03;;
19705;SDS011;10003;52.506;4.700;2022-12-18T13:22:19;10.87;;;6.40;;
19705;SDS011;10003;52.506;4.700;2022-12-18T13:24:48;9.87;;;6.83;;
19705;SDS011;10003;52.506;4.700;2022-12-18T13:35:53;11.80;;;8.10;;
19705;SDS011;10003;52.506;4.700;2022-12-18T13:38:32;11.13;;;7.90;;
19705;SDS011;10003;52.506;4.700;2022-12-18T13:41:01;12.87;;;9.93;;
19705;SDS011;10003;52.506;4.700;2022-12-18T13:43:34;9.47;;;6.50;;
19705;SDS011;10003;52.506;4.700;2022-12-18T13:46:05;9.23;;;7.47;;
19705;SDS011;10003;52.506;4.700;2022-12-18T13:48:35;12.77;;;9.00;;
19705;SDS011;10003;52.506;4.700;2022-12-18T13:51:08;9.33;;;8.30;;
19705;SDS011;10003;52.506;4.700;2022-12-18T13:53:38;10.07;;;7.87;;
19705;SDS011;10003;52.506;4.700;2022-12-18T13:56:08;11.30;;;8.57;;
19705;SDS011;10003;52.506;4.700;2022-12-18T13:58:36;11.67;;;10.47;;
19705;SDS011;10003;52.506;4.700;2022-12-18T14:01:10;14.57;;;7.50;;
19705;SDS011;10003;52.506;4.700;2022-12-18T14:03:44;10.90;;;8.60;;
19705;SDS011;10003;52.506;4.700;2022-12-18T14:06:14;13.93;;;10.43;;
19705;SDS011;10003;52.506;4.700;2022-12-18T14:08:44;14.90;;;11.63;;
19705;SDS011;10003;52.506;4.700;2022-12-18T14:11:17;11.47;;;7.40;;
19705;SDS011;10003;52.506;4.700;2022-12-18T14:13:48;15.73;;;10.20;;
19705;SDS011;10003;52.506;4.700;2022-12-18T14:16:16;12.57;;;9.73;;
19705;SDS011;10003;52.506;4.700;2022-12-18T14:18:46;9.53;;;7.80;;
19705;SDS011;10003;52.506;4.700;2022-12-18T14:21:24;9.13;;;5.80;;
19705;SDS011;10003;52.506;4.700;2022-12-18T14:24:03;15.87;;;11.13;;
19705;SDS011;10003;52.506;4.700;2022-12-18T14:26:32;13.33;;;10.13;;
19705;SDS011;10003;52.506;4.700;2022-12-18T14:29:01;9.43;;;8.37;;
19705;SDS011;10003;52.506;4.700;2022-12-18T14:31:30;12.03;;;9.37;;
19705;SDS011;10003;52.506;4.700;2022-12-18T14:33:59;7.03;;;6.33;;
19705;SDS011;10003;52.506;4.700;2022-12-18T14:36:29;12.87;;;9.87;;
19705;SDS011;10003;52.506;4.700;2022-12-18T14:38:58;9.53;;;7.60;;
19705;SDS011;10003;52.506;4.700;2022-12-18T14:41:26;15.00;;;9.43;;
19705;SDS011;10003;52.506;4.700;2022-12-18T14:43:55;11.47;;;8.33;;
19705;SDS011;10003;52.506;4.700;2022-12-18T14:46:34;14.67;;;9.40;;
19705;SDS011;10003;52.506;4.700;2022-12-18T14:49:03;8.87;;;7.37;;
19705;SDS011;10003;52.506;4.700;2022-12-18T14:51:33;22.40;;;12.70;;
19705;SDS011;10003;52.506;4.700;2022-12-18T14:54:03;13.03;;;9.47;;
19705;SDS011;10003;52.506;4.700;2022-12-18T14:56:34;8.53;;;7.53;;
19705;SDS011;10003;52.506;4.700;2022-12-18T14:59:03;11.23;;;8.73;;
19705;SDS011;10003;52.506;4.700;2022-12-18T15:01:33;12.23;;;9.87;;
19705;SDS011;10003;52.506;4.700;2022-12-18T15:04:04;6.90;;;6.10;;
19705;SDS011;10003;52.506;4.700;2022-12-18T15:06:34;7.60;;;5.50;;
19705;SDS011;10003;52.506;4.700;2022-12-18T15:09:04;12.17;;;9.00;;
19705;SDS011;10003;52.506;4.700;2022-12-18T15:11:34;7.77;;;5.50;;
19705;SDS011;10003;52.506;4.700;2022-12-18T15:14:21;2.13;;;1.77;;
19705;SDS011;10003;52.506;4.700;2022-12-18T15:16:51;9.83;;;7.57;;
19705;SDS011;10003;52.506;4.700;2022-12-18T15:19:20;10.43;;;8.63;;
19705;SDS011;10003;52.506;4.700;2022-12-18T15:21:50;9.13;;;6.67;;
19705;SDS011;10003;52.506;4.700;2022-12-18T15:24:20;13.10;;;11.37;;
19705;SDS011;10003;52.506;4.700;2022-12-18T15:26:52;12.47;;;9.83;;
19705;SDS011;10003;52.506;4.700;2022-12-18T15:29:21;7.50;;;6.43;;
19705;SDS011;10003;52.506;4.700;2022-12-18T15:31:58;13.30;;;11.03;;
19705;SDS011;10003;52.506;4.700;2022-12-18T15:34:27;11.77;;;8.93;;
19705;SDS011;10003;52.506;4.700;2022-12-18T15:36:57;13.47;;;10.63;;
19705;SDS011;10003;52.506;4.700;2022-12-18T15:39:25;7.43;;;4.77;;
19705;SDS011;10003;52.506;4.700;2022-12-18T15:41:54;13.37;;;9.33;;
19705;SDS011;10003;52.506;4.700;2022-12-18T15:44:39;11.33;;;7.80;;
19705;SDS011;10003;52.506;4.700;2022-12-18T15:47:10;10.87;;;9.00;;
19705;SDS011;10003;52.506;4.700;2022-12-18T15:49:38;9.97;;;7.60;;
19705;SDS011;10003;52.506;4.700;2022-12-18T15:52:09;6.23;;;4.37;;
19705;SDS011;10003;52.506;4.700;2022-12-18T15:54:40;14.10;;;10.67;;
19705;SDS011;10003;52.506;4.700;2022-12-18T15:57:31;11.67;;;9.30;;
19705;SDS011;10003;52.506;4.700;2022-12-18T15:59:59;11.90;;;9.13;;
19705;SDS011;10003;52.506;4.700;2022-12-18T16:02:28;15.83;;;13.27;;
19705;SDS011;10003;52.506;4.700;2022-12-18T16:04:56;16.57;;;14.80;;
19705;SDS011;10003;52.506;4.700;2022-12-18T16:07:26;6.00;;;5.23;;
19705;SDS011;10003;52.506;4.700;2022-12-18T16:09:56;11.57;;;9.83;;
19705;SDS011;10003;52.506;4.700;2022-12-18T16:12:27;10.60;;;9.50;;
19705;SDS011;10003;52.506;4.700;2022-12-18T16:14:56;16.17;;;14.50;;
19705;SDS011;10003;52.506;4.700;2022-12-18T16:17:24;16.57;;;14.10;;
19705;SDS011;10003;52.506;4.700;2022-12-18T16:19:52;11.83;;;9.67;;
19705;SDS011;10003;52.506;4.700;2022-12-18T16:22:21;14.53;;;12.93;;
19705;SDS011;10003;52.506;4.700;2022-12-18T16:24:52;16.10;;;14.10;;
19705;SDS011;10003;52.506;4.700;2022-12-18T16:27:21;19.23;;;17.30;;
19705;SDS011;10003;52.506;4.700;2022-12-18T16:29:49;16.87;;;15.17;;
19705;SDS011;10003;52.506;4.700;2022-12-18T16:32:18;14.00;;;12.50;;
19705;SDS011;10003;52.506;4.700;2022-12-18T16:34:49;19.57;;;17.53;;
19705;SDS011;10003;52.506;4.700;2022-12-18T16:37:17;20.73;;;18.63;;
19705;SDS011;10003;52.506;4.700;2022-12-18T16:39:46;20.83;;;17.83;;
19705;SDS011;10003;52.506;4.700;2022-12-18T16:42:16;19.77;;;17.77;;